createdAt,value
2023-02-16T00:00:24.433Z,57.40
2023-02-16T00:03:18.168Z,52.72
2023-02-16T00:05:46.322Z,54.53
2023-02-16T00:08:13.538Z,59.03
2023-02-16T00:10:41.166Z,53.03
2023-02-16T00:13:47.422Z,56.65
2023-02-16T00:16:20.884Z,58.25
2023-02-16T00:18:48.626Z,68.53
2023-02-16T00:21:17.060Z,64.32
2023-02-16T00:23:44.514Z,65.78
2023-02-16T00:26:17.797Z,69.68
2023-02-16T00:28:50.514Z,68.03
2023-02-16T00:31:21.027Z,58.83
2023-02-16T00:33:50.209Z,63.40
2023-02-16T00:36:21.897Z,66.32
2023-02-16T00:38:50.406Z,64.32
2023-02-16T00:41:39.772Z,62.83
2023-02-16T00:44:14.687Z,66.53
2023-02-16T00:46:42.774Z,66.72
2023-02-16T00:49:15.143Z,69.25
2023-02-16T00:51:43.368Z,64.15
2023-02-16T00:54:11.441Z,66.55
2023-02-16T00:56:40.795Z,67.47
2023-02-16T00:59:16.786Z,68.88
2023-02-16T01:01:44.455Z,72.88
2023-02-16T01:04:22.245Z,67.72
2023-02-16T01:07:08.797Z,67.60
2023-02-16T01:09:54.833Z,68.28
2023-02-16T01:12:22.871Z,68.90
2023-02-16T01:14:53.947Z,68.05
2023-02-16T01:17:24.116Z,68.63
2023-02-16T01:19:54.114Z,70.20
2023-02-16T01:22:21.604Z,70.25
2023-02-16T01:24:48.743Z,69.70
2023-02-16T01:27:16.252Z,69.70
2023-02-16T01:29:45.555Z,67.15
2023-02-16T01:32:13.408Z,71.18
2023-02-16T01:34:40.776Z,74.03
2023-02-16T01:37:15.361Z,71.28
2023-02-16T01:39:44.106Z,71.95
2023-02-16T01:42:21.062Z,78.40
2023-02-16T01:45:15.845Z,75.63
2023-02-16T01:47:50.110Z,74.57
2023-02-16T01:50:22.252Z,68.45
2023-02-16T01:53:18.862Z,67.47
2023-02-16T01:55:49.640Z,79.47
2023-02-16T01:58:34.215Z,83.88
2023-02-16T02:01:01.264Z,73.00
2023-02-16T02:03:53.928Z,65.78
2023-02-16T02:06:27.917Z,65.95
2023-02-16T02:09:22.387Z,72.20
2023-02-16T02:12:06.579Z,66.97
2023-02-16T02:14:38.832Z,68.85
2023-02-16T02:17:09.885Z,72.35
2023-02-16T02:20:12.269Z,68.88
2023-02-16T02:23:00.987Z,71.72
2023-02-16T02:26:07.796Z,72.60
2023-02-16T02:28:38.138Z,74.45
2023-02-16T02:31:23.972Z,75.18
2023-02-16T02:34:48.445Z,79.03
2023-02-16T02:37:16.060Z,75.85
2023-02-16T02:40:00.655Z,79.07
2023-02-16T02:42:50.791Z,80.97
2023-02-16T02:45:44.088Z,73.05
2023-02-16T02:48:11.578Z,83.65
2023-02-16T02:51:08.763Z,78.72
2023-02-16T02:53:45.427Z,82.45
2023-02-16T02:56:34.973Z,79.40
2023-02-16T02:59:25.728Z,71.93
2023-02-16T03:01:58.431Z,78.32
2023-02-16T03:04:29.050Z,75.30
2023-02-16T03:06:58.081Z,75.45
2023-02-16T03:09:25.969Z,79.00
2023-02-16T03:12:13.093Z,69.78
2023-02-16T03:17:32.744Z,72.50
2023-02-16T03:20:22.810Z,72.10
2023-02-16T03:23:08.776Z,78.53
2023-02-16T03:25:57.523Z,77.03
2023-02-16T03:28:47.346Z,79.22
2023-02-16T03:31:20.690Z,77.68
2023-02-16T03:33:54.761Z,68.05
2023-02-16T03:36:27.904Z,80.80
2023-02-16T03:38:56.671Z,74.10
2023-02-16T03:41:25.760Z,73.88
2023-02-16T03:43:53.015Z,76.72
2023-02-16T03:46:20.668Z,76.95
2023-02-16T03:48:47.909Z,71.00
2023-02-16T03:51:15.399Z,72.35
2023-02-16T03:53:42.504Z,79.28
2023-02-16T03:56:09.951Z,73.55
2023-02-16T03:58:37.089Z,76.93
2023-02-16T04:01:04.782Z,79.32
2023-02-16T04:03:32.288Z,78.13
2023-02-16T04:06:00.676Z,81.57
2023-02-16T04:08:27.780Z,72.57
2023-02-16T04:10:57.433Z,75.85
2023-02-16T04:13:24.799Z,74.18
2023-02-16T04:15:53.041Z,72.40
2023-02-16T04:18:20.285Z,71.20
2023-02-16T04:20:47.756Z,83.72
2023-02-16T04:23:14.849Z,78.85
2023-02-16T04:25:42.724Z,82.88
2023-02-16T04:28:09.877Z,82.43
2023-02-16T04:30:37.384Z,79.68
2023-02-16T04:33:04.747Z,75.47
2023-02-16T04:35:32.433Z,82.75
2023-02-16T04:37:59.553Z,77.90
2023-02-16T04:40:27.041Z,84.18
2023-02-16T04:42:54.164Z,79.03
2023-02-16T04:45:21.716Z,79.75
2023-02-16T04:47:48.883Z,78.00
2023-02-16T04:50:16.415Z,81.88
2023-02-16T04:52:43.740Z,70.10
2023-02-16T04:55:11.285Z,75.43
2023-02-16T04:57:39.499Z,79.38
2023-02-16T05:00:08.576Z,80.85
2023-02-16T05:02:35.756Z,78.18
2023-02-16T05:05:03.305Z,77.22
2023-02-16T05:07:30.420Z,82.57
2023-02-16T05:09:57.916Z,80.15
2023-02-16T05:12:43.551Z,83.72
2023-02-16T05:15:11.143Z,77.78
2023-02-16T05:17:38.304Z,88.03
2023-02-16T05:20:09.233Z,81.95
2023-02-16T05:22:39.087Z,73.40
2023-02-16T05:25:07.775Z,77.32
2023-02-16T05:27:35.529Z,76.30
2023-02-16T05:30:03.094Z,82.95
2023-02-16T05:32:30.323Z,78.47
2023-02-16T05:34:57.709Z,86.78
2023-02-16T05:37:25.027Z,88.90
2023-02-16T05:39:52.961Z,85.43
2023-02-16T05:42:20.134Z,90.60
2023-02-16T05:44:48.356Z,82.80
2023-02-16T05:47:15.586Z,75.20
2023-02-16T05:49:43.000Z,95.75
2023-02-16T05:52:10.317Z,107.93
2023-02-16T05:54:37.728Z,100.22
2023-02-16T05:57:04.886Z,99.20
2023-02-16T05:59:32.386Z,101.72
2023-02-16T06:01:59.725Z,93.43
2023-02-16T06:04:28.656Z,89.80
2023-02-16T06:06:55.782Z,94.85
2023-02-16T06:09:23.286Z,95.45
2023-02-16T06:11:50.693Z,100.32
2023-02-16T06:14:21.036Z,85.95
2023-02-16T06:16:51.597Z,97.13
2023-02-16T06:19:20.458Z,118.63
2023-02-16T06:21:48.334Z,119.72
2023-02-16T06:24:16.018Z,112.20
2023-02-16T06:26:43.349Z,109.18
2023-02-16T06:29:11.128Z,105.93
2023-02-16T06:31:38.378Z,108.78
2023-02-16T06:34:06.423Z,109.50
2023-02-16T06:36:34.315Z,105.57
2023-02-16T06:39:01.888Z,105.70
2023-02-16T06:41:32.301Z,105.22
2023-02-16T06:44:04.868Z,127.43
2023-02-16T06:46:32.718Z,128.93
2023-02-16T06:49:00.581Z,95.38
2023-02-16T06:51:28.408Z,104.97
2023-02-16T06:53:55.957Z,105.30
2023-02-16T06:56:23.470Z,109.43
2023-02-16T06:58:51.432Z,156.30
2023-02-16T07:01:23.198Z,123.13
2023-02-16T07:03:52.224Z,109.72
2023-02-16T07:06:20.355Z,98.88
2023-02-16T07:08:48.072Z,105.57
2023-02-16T07:11:16.082Z,107.85
2023-02-16T07:13:43.960Z,136.52
2023-02-16T07:16:11.602Z,136.73
2023-02-16T07:18:39.214Z,112.97
2023-02-16T07:21:07.123Z,135.93
2023-02-16T07:23:34.780Z,140.80
2023-02-16T07:26:02.165Z,128.25
2023-02-16T07:28:29.620Z,118.15
2023-02-16T07:30:56.949Z,141.35
2023-02-16T07:33:24.426Z,120.68
2023-02-16T07:35:51.616Z,106.63
2023-02-16T07:38:19.281Z,123.25
2023-02-16T07:40:46.408Z,117.95
2023-02-16T07:43:13.895Z,129.52
2023-02-16T07:45:42.461Z,103.78
2023-02-16T07:48:10.293Z,95.15
2023-02-16T07:50:37.756Z,119.45
2023-02-16T07:53:05.330Z,117.85
2023-02-16T07:55:32.511Z,96.45
2023-02-16T07:58:00.589Z,87.93
2023-02-16T08:00:27.840Z,101.57
2023-02-16T08:02:55.461Z,89.70
2023-02-16T08:05:23.129Z,97.85
2023-02-16T08:07:50.592Z,99.80
2023-02-16T08:10:18.135Z,105.13
2023-02-16T08:12:45.594Z,96.53
2023-02-16T08:15:13.176Z,99.68
2023-02-16T08:17:40.670Z,97.45
2023-02-16T08:20:08.968Z,110.45
2023-02-16T08:22:37.243Z,95.93
2023-02-16T08:25:07.014Z,97.60
2023-02-16T08:27:35.836Z,102.78
2023-02-16T08:30:03.825Z,90.18
2023-02-16T08:32:31.728Z,88.07
2023-02-16T08:34:58.957Z,91.22
2023-02-16T08:37:26.380Z,83.57
2023-02-16T08:39:53.935Z,84.60
2023-02-16T08:42:21.576Z,90.05
2023-02-16T08:44:48.795Z,89.80
2023-02-16T08:47:19.560Z,87.43
2023-02-16T08:49:47.833Z,94.55
2023-02-16T08:52:15.447Z,97.25
2023-02-16T08:54:42.773Z,96.22
2023-02-16T08:57:10.301Z,98.28
2023-02-16T08:59:37.518Z,105.30
2023-02-16T09:02:05.421Z,92.03
2023-02-16T09:04:32.601Z,92.40
2023-02-16T09:07:00.415Z,96.50
2023-02-16T09:09:28.849Z,93.80
2023-02-16T09:11:58.099Z,87.10
2023-02-16T09:14:25.368Z,94.30
2023-02-16T09:16:53.047Z,82.80
2023-02-16T09:19:21.741Z,82.07
2023-02-16T09:21:51.028Z,86.43
2023-02-16T09:24:19.296Z,99.22
2023-02-16T09:26:46.782Z,88.32
2023-02-16T09:29:14.202Z,99.35
2023-02-16T09:31:44.506Z,95.95
2023-02-16T09:34:22.968Z,119.22
2023-02-16T09:36:51.267Z,110.43
2023-02-16T09:39:19.240Z,114.35
2023-02-16T09:42:22.421Z,104.47
2023-02-16T09:45:09.908Z,94.40
2023-02-16T09:47:45.046Z,107.28
2023-02-16T09:50:50.353Z,115.07
2023-02-16T09:53:20.558Z,98.15
2023-02-16T09:56:20.262Z,95.57
2023-02-16T09:58:57.452Z,105.28
2023-02-16T10:04:24.376Z,94.18
2023-02-16T10:07:06.528Z,96.25
2023-02-16T10:09:35.046Z,100.22
2023-02-16T10:12:16.001Z,86.43
2023-02-16T10:14:54.147Z,93.90
2023-02-16T10:17:37.748Z,99.68
2023-02-16T10:20:19.658Z,104.40
2023-02-16T10:23:12.404Z,78.10
2023-02-16T10:26:01.550Z,88.32
2023-02-16T10:28:46.951Z,90.03
2023-02-16T10:31:36.146Z,105.70
2023-02-16T10:34:23.392Z,109.75
2023-02-16T10:37:12.848Z,89.63
2023-02-16T10:39:57.909Z,89.60
2023-02-16T10:42:53.592Z,93.30
2023-02-16T10:45:32.028Z,87.30
2023-02-16T10:47:59.775Z,88.65
2023-02-16T10:50:33.137Z,97.53
2023-02-16T10:53:06.830Z,91.43
2023-02-16T10:55:34.191Z,86.40
2023-02-16T10:58:02.649Z,87.00
2023-02-16T11:00:58.649Z,85.38
2023-02-16T11:03:30.628Z,82.65
2023-02-16T11:06:13.629Z,86.07
2023-02-16T11:09:07.738Z,86.50
2023-02-16T11:11:41.139Z,86.75
2023-02-16T11:14:24.826Z,86.20
2023-02-16T11:17:12.768Z,90.15
2023-02-16T11:20:01.818Z,85.82
2023-02-16T11:22:39.293Z,87.18
2023-02-16T11:25:20.030Z,87.88
2023-02-16T11:27:57.681Z,96.63
2023-02-16T11:30:33.452Z,87.65
2023-02-16T11:33:03.602Z,96.00
2023-02-16T11:35:33.116Z,92.45
2023-02-16T11:38:00.558Z,93.00
2023-02-16T11:40:33.389Z,94.78
2023-02-16T11:43:02.121Z,97.03
2023-02-16T11:45:36.925Z,97.68
2023-02-16T11:48:12.420Z,112.63
2023-02-16T11:50:55.366Z,94.57
2023-02-16T11:53:28.618Z,100.68
2023-02-16T11:56:30.227Z,106.80
2023-02-16T11:59:21.188Z,115.05
2023-02-16T12:02:07.386Z,109.70
2023-02-16T12:04:46.581Z,106.93
2023-02-16T12:07:23.243Z,114.38
2023-02-16T12:10:03.836Z,93.32
2023-02-16T12:12:52.889Z,117.75
2023-02-16T12:15:30.517Z,114.75
2023-02-16T12:18:35.745Z,119.18
2023-02-16T12:21:08.817Z,127.53
2023-02-16T12:23:51.371Z,135.23
2023-02-16T12:26:40.042Z,124.53
2023-02-16T12:29:26.123Z,115.53
2023-02-16T12:32:14.857Z,133.88
2023-02-16T12:34:57.107Z,135.45
2023-02-16T12:37:53.294Z,156.98
2023-02-16T12:40:39.421Z,130.23
2023-02-16T12:43:24.199Z,142.95
2023-02-16T12:45:54.223Z,135.70
2023-02-16T12:48:47.999Z,147.48
2023-02-16T12:51:31.269Z,117.32
2023-02-16T12:54:07.963Z,121.43
2023-02-16T12:56:44.323Z,126.57
2023-02-16T12:59:19.999Z,117.28
2023-02-16T13:01:49.467Z,151.85
2023-02-16T13:04:37.804Z,124.53
2023-02-16T13:07:22.636Z,123.55
2023-02-16T13:09:50.092Z,124.20
2023-02-16T13:12:30.088Z,135.55
2023-02-16T13:15:13.318Z,138.70
2023-02-16T13:17:46.314Z,114.97
2023-02-16T13:20:21.840Z,116.43
2023-02-16T13:23:02.498Z,114.63
2023-02-16T13:25:43.320Z,116.45
2023-02-16T13:28:44.065Z,123.60
2023-02-16T13:31:15.579Z,119.60
2023-02-16T13:34:24.365Z,117.68
2023-02-16T13:37:21.850Z,114.15
2023-02-16T13:40:08.166Z,110.10
2023-02-16T13:42:44.371Z,115.15
2023-02-16T13:45:24.173Z,135.80
2023-02-16T13:47:54.434Z,112.70
2023-02-16T13:50:24.930Z,112.18
2023-02-16T13:52:53.608Z,126.85
2023-02-16T13:55:31.440Z,121.72
2023-02-16T13:58:29.482Z,112.20
2023-02-16T14:00:57.027Z,111.43
2023-02-16T14:03:24.810Z,115.65
2023-02-16T14:05:54.272Z,125.43
2023-02-16T14:08:23.221Z,113.88
2023-02-16T14:10:53.617Z,109.07
2023-02-16T14:13:38.858Z,101.03
2023-02-16T14:16:18.303Z,103.82
2023-02-16T14:18:58.962Z,98.57
2023-02-16T14:21:38.822Z,104.25
2023-02-16T14:24:11.562Z,98.95
2023-02-16T14:27:04.084Z,91.75
2023-02-16T14:29:38.887Z,100.05
2023-02-16T14:32:28.502Z,98.63
2023-02-16T14:35:13.885Z,102.10
2023-02-16T14:38:22.858Z,93.75
2023-02-16T14:40:56.297Z,92.70
2023-02-16T14:43:31.427Z,93.03
2023-02-16T14:46:10.847Z,93.80
2023-02-16T14:49:15.623Z,97.43
2023-02-16T14:52:11.074Z,97.65
2023-02-16T14:55:15.485Z,97.03
2023-02-16T14:58:05.271Z,90.05
2023-02-16T15:00:46.867Z,93.45
2023-02-16T15:03:16.893Z,94.35
2023-02-16T15:05:58.261Z,93.07
2023-02-16T15:08:35.300Z,92.88
2023-02-16T15:11:20.339Z,96.35
2023-02-16T15:13:52.478Z,94.38
2023-02-16T15:16:22.505Z,95.35
2023-02-16T15:18:55.973Z,99.22
2023-02-16T15:21:30.727Z,99.65
2023-02-16T15:24:00.600Z,94.80
2023-02-16T15:26:34.312Z,96.72
2023-02-16T15:29:25.230Z,96.07
2023-02-16T15:31:53.653Z,110.95
2023-02-16T15:34:35.023Z,140.60
2023-02-16T15:37:24.303Z,104.70
2023-02-16T15:40:14.956Z,108.65
2023-02-16T15:45:52.737Z,96.40
2023-02-16T15:48:44.037Z,103.00
2023-02-16T15:51:21.206Z,101.65
2023-02-16T15:53:59.472Z,125.20
2023-02-16T15:56:32.400Z,114.18
2023-02-16T15:59:13.061Z,112.07
2023-02-16T16:01:40.505Z,121.03
2023-02-16T16:04:21.997Z,120.70
2023-02-16T16:06:51.169Z,187.93
2023-02-16T16:09:30.957Z,204.20
2023-02-16T16:12:07.102Z,239.10
2023-02-16T16:14:39.619Z,230.88
2023-02-16T16:17:12.301Z,204.18
2023-02-16T16:19:39.829Z,189.85
2023-02-16T16:22:33.058Z,176.05
2023-02-16T16:25:01.553Z,166.32
2023-02-16T16:27:32.653Z,128.20
2023-02-16T16:30:26.476Z,140.23
2023-02-16T16:33:00.996Z,140.43
2023-02-16T16:35:45.086Z,134.52
2023-02-16T16:38:27.998Z,121.30
2023-02-16T16:41:02.870Z,124.57
2023-02-16T16:43:31.474Z,128.70
2023-02-16T16:46:18.575Z,137.88
2023-02-16T16:48:51.194Z,137.50
2023-02-16T16:51:22.933Z,130.52
2023-02-16T16:54:05.635Z,132.95
2023-02-16T16:56:38.462Z,126.65
2023-02-16T16:59:06.425Z,148.20
2023-02-16T17:01:34.313Z,152.13
2023-02-16T17:04:01.823Z,150.60
2023-02-16T17:06:30.025Z,161.30
2023-02-16T17:08:57.618Z,181.45
2023-02-16T17:11:29.815Z,172.63
2023-02-16T17:14:08.554Z,170.88
2023-02-16T17:16:43.045Z,172.35
2023-02-16T17:19:13.538Z,166.63
2023-02-16T17:21:41.432Z,163.43
2023-02-16T17:24:10.159Z,176.20
2023-02-16T17:26:37.840Z,167.68
2023-02-16T17:29:06.345Z,172.98
2023-02-16T17:31:34.710Z,170.57
2023-02-16T17:34:01.984Z,185.05
2023-02-16T17:36:29.495Z,183.32
2023-02-16T17:38:56.634Z,169.68
2023-02-16T17:41:27.829Z,174.30
2023-02-16T17:43:55.171Z,187.20
2023-02-16T17:46:23.392Z,190.43
2023-02-16T17:48:53.891Z,170.57
2023-02-16T17:51:23.715Z,174.63
2023-02-16T17:53:51.516Z,183.88
2023-02-16T17:56:22.076Z,204.57
2023-02-16T17:58:49.741Z,206.93
2023-02-16T18:01:18.428Z,199.15
2023-02-16T18:03:45.957Z,185.50
2023-02-16T18:06:20.847Z,195.52
2023-02-16T18:08:48.190Z,194.27
2023-02-16T18:11:15.937Z,196.80
2023-02-16T18:13:43.521Z,199.13
2023-02-16T18:16:15.753Z,200.70
2023-02-16T18:18:43.028Z,185.98
2023-02-16T18:21:11.931Z,188.73
2023-02-16T18:23:39.527Z,199.43
2023-02-16T18:26:08.898Z,198.10
2023-02-16T18:28:36.402Z,184.00
2023-02-16T18:31:07.461Z,195.13
2023-02-16T18:33:35.232Z,193.95
2023-02-16T18:36:03.669Z,201.80
2023-02-16T18:38:31.241Z,246.40
2023-02-16T18:40:58.768Z,234.55
2023-02-16T18:43:26.214Z,255.43
2023-02-16T18:45:53.720Z,315.15
2023-02-16T18:48:21.785Z,305.67
2023-02-16T18:50:49.324Z,299.90
2023-02-16T18:53:16.719Z,294.58
2023-02-16T18:55:44.727Z,325.58
2023-02-16T18:58:13.285Z,307.92
2023-02-16T19:00:40.921Z,307.35
2023-02-16T19:03:08.767Z,317.75
2023-02-16T19:05:36.438Z,296.30
2023-02-16T19:08:03.772Z,299.48
2023-02-16T19:10:31.327Z,271.15
2023-02-16T19:13:00.659Z,289.15
2023-02-16T19:15:28.679Z,257.90
2023-02-16T19:17:55.858Z,248.68
2023-02-16T19:20:29.083Z,247.27
2023-02-16T19:22:56.664Z,251.90
2023-02-16T19:25:24.261Z,245.50
2023-02-16T19:27:51.428Z,255.40
2023-02-16T19:30:21.654Z,234.35
2023-02-16T19:32:49.208Z,241.68
2023-02-16T19:35:16.816Z,209.02
2023-02-16T19:37:44.173Z,211.73
2023-02-16T19:40:12.628Z,194.85
2023-02-16T19:42:41.106Z,181.10
2023-02-16T19:45:09.285Z,181.73
2023-02-16T19:47:36.600Z,178.35
2023-02-16T19:50:04.417Z,212.77
2023-02-16T19:52:31.644Z,175.27
2023-02-16T19:54:59.147Z,179.38
2023-02-16T19:57:26.326Z,172.90
2023-02-16T19:59:53.930Z,169.10
2023-02-16T20:02:21.118Z,166.40
2023-02-16T20:04:48.677Z,159.23
2023-02-16T20:07:16.359Z,166.25
2023-02-16T20:09:43.858Z,171.88
2023-02-16T20:12:12.645Z,179.00
2023-02-16T20:14:40.236Z,172.10
2023-02-16T20:17:07.638Z,162.13
2023-02-16T20:19:35.108Z,164.73
2023-02-16T20:22:02.257Z,179.88
2023-02-16T20:24:30.077Z,168.70
2023-02-16T20:26:57.488Z,177.77
2023-02-16T20:29:25.194Z,167.15
2023-02-16T20:31:55.716Z,169.88
2023-02-16T20:34:27.436Z,161.00
2023-02-16T20:36:55.130Z,164.48
2023-02-16T20:39:23.772Z,161.48
2023-02-16T20:41:51.228Z,145.82
2023-02-16T20:44:18.827Z,150.15
2023-02-16T20:46:46.188Z,146.82
2023-02-16T20:49:14.608Z,138.02
2023-02-16T20:51:41.756Z,142.07
2023-02-16T20:54:12.293Z,145.75
2023-02-16T20:56:42.173Z,128.80
2023-02-16T20:59:11.640Z,131.45
2023-02-16T21:01:43.743Z,150.13
2023-02-16T21:04:11.296Z,143.38
2023-02-16T21:06:39.197Z,143.18
2023-02-16T21:09:08.350Z,137.93
2023-02-16T21:11:37.224Z,137.63
2023-02-16T21:14:06.255Z,139.55
2023-02-16T21:16:33.667Z,141.00
2023-02-16T21:19:01.177Z,138.77
2023-02-16T21:21:28.565Z,142.52
2023-02-16T21:23:56.593Z,149.55
2023-02-16T21:26:25.248Z,143.10
2023-02-16T21:28:53.336Z,146.20
2023-02-16T21:31:24.395Z,154.90
2023-02-16T21:33:52.395Z,146.02
2023-02-16T21:36:23.425Z,155.50
2023-02-16T21:38:50.925Z,145.70
2023-02-16T21:41:28.699Z,152.23
2023-02-16T21:44:02.093Z,157.32
2023-02-16T21:46:50.776Z,146.68
2023-02-16T21:49:20.298Z,142.70
2023-02-16T21:51:49.037Z,138.65
2023-02-16T21:54:38.872Z,145.02
2023-02-16T21:57:06.018Z,136.07
2023-02-16T21:59:34.258Z,147.02
2023-02-16T22:02:01.447Z,141.45
2023-02-16T22:04:28.989Z,138.45
2023-02-16T22:06:56.252Z,142.85
2023-02-16T22:09:23.922Z,132.35
2023-02-16T22:11:52.067Z,140.07
2023-02-16T22:14:19.703Z,132.43
2023-02-16T22:16:47.968Z,133.30
2023-02-16T22:19:17.560Z,133.48
2023-02-16T22:21:46.316Z,129.00
2023-02-16T22:24:17.098Z,125.72
2023-02-16T22:26:45.671Z,123.10
2023-02-16T22:29:13.498Z,125.32
2023-02-16T22:31:45.572Z,131.93
2023-02-16T22:34:15.731Z,116.22
2023-02-16T22:36:43.397Z,122.85
2023-02-16T22:39:13.678Z,119.22
2023-02-16T22:41:41.291Z,123.10
2023-02-16T22:44:10.961Z,112.32
2023-02-16T22:46:38.694Z,110.75
2023-02-16T22:49:06.184Z,111.55
2023-02-16T22:51:33.604Z,112.97
2023-02-16T22:54:02.296Z,115.45
2023-02-16T22:56:30.338Z,108.78
2023-02-16T22:58:59.684Z,114.22
2023-02-16T23:01:29.338Z,117.95
2023-02-16T23:03:58.187Z,107.90
2023-02-16T23:06:28.227Z,107.28
2023-02-16T23:09:01.693Z,104.20
2023-02-16T23:11:28.979Z,109.72
2023-02-16T23:13:56.750Z,113.93
2023-02-16T23:16:26.420Z,107.63
2023-02-16T23:18:56.562Z,106.97
2023-02-16T23:21:26.717Z,106.57
2023-02-16T23:23:54.563Z,109.75
2023-02-16T23:26:23.349Z,110.43
2023-02-16T23:28:53.528Z,110.80
2023-02-16T23:31:21.939Z,111.35
2023-02-16T23:33:50.138Z,102.43
2023-02-16T23:36:17.268Z,99.88
2023-02-16T23:38:44.821Z,106.28
2023-02-16T23:41:13.423Z,108.95
2023-02-16T23:43:41.476Z,109.90
2023-02-16T23:46:09.664Z,106.05
2023-02-16T23:48:38.276Z,101.28
2023-02-16T23:51:05.891Z,112.55
2023-02-16T23:53:33.929Z,101.88
2023-02-16T23:56:09.006Z,116.05
2023-02-16T23:58:45.066Z,112.32
